sensor_id;sensor_type;location;lat;lon;timestamp;pressure;altitude;pressure_sealevel;temperature;humidity
7824;BME280;3957;48.61947800;9.05303100;2023-03-23T00:00:12;95533.44;;;10.71;61.97
7824;BME280;3957;48.61947800;9.05303100;2023-03-23T00:01:16;95527.09;;;10.65;62.64
7824;BME280;3957;48.61947800;9.05303100;2023-03-23T00:02:23;95532.19;;;10.74;62.34
7824;BME280;3957;48.61947800;9.05303100;2023-03-23T00:03:24;95530.81;;;10.64;62.63
7824;BME280;3957;48.61947800;9.05303100;2023-03-23T00:04:28;95530.16;;;10.69;62.13
7824;BME280;3957;48.61947800;9.05303100;2023-03-23T00:05:32;95531.97;;;10.75;61.69
7824;BME280;3957;48.61947800;9.05303100;2023-03-23T00:06:32;95537.53;;;10.74;61.69
7824;BME280;3957;48.61947800;9.05303100;2023-03-23T00:07:34;95528.47;;;10.75;61.29
7824;BME280;3957;48.61947800;9.05303100;2023-03-23T00:08:37;95523.44;;;10.85;61.58
7824;BME280;3957;48.61947800;9.05303100;2023-03-23T00:09:44;95536.16;;;10.89;61.81
7824;BME280;3957;48.61947800;9.05303100;2023-03-23T00:10:48;95532.13;;;10.80;61.36
7824;BME280;3957;48.61947800;9.05303100;2023-03-23T00:11:48;95527.63;;;10.74;62.24
7824;BME280;3957;48.61947800;9.05303100;2023-03-23T00:12:48;95535.03;;;10.79;62.01
7824;BME280;3957;48.61947800;9.05303100;2023-03-23T00:13:50;95531.75;;;10.77;61.98
7824;BME280;3957;48.61947800;9.05303100;2023-03-23T00:14:51;95531.91;;;10.82;61.30
7824;BME280;3957;48.61947800;9.05303100;2023-03-23T00:15:54;95533.00;;;10.74;62.01
7824;BME280;3957;48.61947800;9.05303100;2023-03-23T00:16:57;95532.63;;;10.70;62.17
7824;BME280;3957;48.61947800;9.05303100;2023-03-23T00:17:57;95538.66;;;10.59;63.07
7824;BME280;3957;48.61947800;9.05303100;2023-03-23T00:19:05;95533.16;;;10.54;63.25
7824;BME280;3957;48.61947800;9.05303100;2023-03-23T00:20:06;95533.78;;;10.49;63.32
7824;BME280;3957;48.61947800;9.05303100;2023-03-23T00:21:07;95531.41;;;10.66;62.76
7824;BME280;3957;48.61947800;9.05303100;2023-03-23T00:22:08;95526.47;;;10.63;62.91
7824;BME280;3957;48.61947800;9.05303100;2023-03-23T00:23:09;95533.59;;;10.51;63.75
7824;BME280;3957;48.61947800;9.05303100;2023-03-23T00:25:16;95522.56;;;10.34;64.14
7824;BME280;3957;48.61947800;9.05303100;2023-03-23T00:26:17;95526.47;;;10.31;64.43
7824;BME280;3957;48.61947800;9.05303100;2023-03-23T00:27:18;95525.72;;;10.24;65.21
7824;BME280;3957;48.61947800;9.05303100;2023-03-23T00:28:20;95524.28;;;10.21;64.46
7824;BME280;3957;48.61947800;9.05303100;2023-03-23T00:29:25;95526.69;;;10.36;63.19
7824;BME280;3957;48.61947800;9.05303100;2023-03-23T00:30:26;95520.91;;;10.33;63.53
7824;BME280;3957;48.61947800;9.05303100;2023-03-23T00:31:27;95527.09;;;10.40;63.49
7824;BME280;3957;48.61947800;9.05303100;2023-03-23T00:32:32;95521.97;;;10.38;63.65
7824;BME280;3957;48.61947800;9.05303100;2023-03-23T00:33:37;95524.22;;;10.35;64.15
7824;BME280;3957;48.61947800;9.05303100;2023-03-23T00:34:43;95517.66;;;10.31;64.06
7824;BME280;3957;48.61947800;9.05303100;2023-03-23T00:35:46;95520.31;;;10.31;64.22
7824;BME280;3957;48.61947800;9.05303100;2023-03-23T00:36:49;95515.41;;;10.34;64.14
7824;BME280;3957;48.61947800;9.05303100;2023-03-23T00:37:50;95513.94;;;10.32;64.51
7824;BME280;3957;48.61947800;9.05303100;2023-03-23T00:38:50;95517.91;;;10.23;65.14
7824;BME280;3957;48.61947800;9.05303100;2023-03-23T00:39:53;95509.50;;;10.19;64.90
7824;BME280;3957;48.61947800;9.05303100;2023-03-23T00:40:57;95508.47;;;10.20;65.47
7824;BME280;3957;48.61947800;9.05303100;2023-03-23T00:41:57;95505.78;;;10.20;65.27
7824;BME280;3957;48.61947800;9.05303100;2023-03-23T00:43:01;95506.63;;;10.20;65.52
7824;BME280;3957;48.61947800;9.05303100;2023-03-23T00:44:04;95501.91;;;10.16;65.89
7824;BME280;3957;48.61947800;9.05303100;2023-03-23T00:45:05;95505.41;;;10.16;66.64
7824;BME280;3957;48.61947800;9.05303100;2023-03-23T00:46:10;95506.22;;;10.17;66.64
7824;BME280;3957;48.61947800;9.05303100;2023-03-23T00:47:11;95498.63;;;10.14;67.72
7824;BME280;3957;48.61947800;9.05303100;2023-03-23T00:48:12;95491.00;;;10.17;66.30
7824;BME280;3957;48.61947800;9.05303100;2023-03-23T00:49:20;95493.41;;;10.26;65.13
7824;BME280;3957;48.61947800;9.05303100;2023-03-23T00:50:25;95499.16;;;10.29;66.07
7824;BME280;3957;48.61947800;9.05303100;2023-03-23T00:51:25;95487.69;;;10.22;66.88
7824;BME280;3957;48.61947800;9.05303100;2023-03-23T00:52:25;95489.88;;;10.32;66.50
7824;BME280;3957;48.61947800;9.05303100;2023-03-23T00:53:26;95488.72;;;10.21;67.66
7824;BME280;3957;48.61947800;9.05303100;2023-03-23T00:54:27;95490.69;;;10.32;65.64
7824;BME280;3957;48.61947800;9.05303100;2023-03-23T00:55:28;95495.63;;;10.29;66.53
7824;BME280;3957;48.61947800;9.05303100;2023-03-23T00:56:30;95486.56;;;10.36;65.20
7824;BME280;3957;48.61947800;9.05303100;2023-03-23T00:57:31;95492.91;;;10.42;65.61
7824;BME280;3957;48.61947800;9.05303100;2023-03-23T00:58:31;95489.66;;;10.40;65.36
7824;BME280;3957;48.61947800;9.05303100;2023-03-23T00:59:32;95488.19;;;10.44;65.14
7824;BME280;3957;48.61947800;9.05303100;2023-03-23T01:00:32;95487.28;;;10.50;64.40
7824;BME280;3957;48.61947800;9.05303100;2023-03-23T01:01:33;95494.94;;;10.47;64.99
7824;BME280;3957;48.61947800;9.05303100;2023-03-23T01:02:34;95489.25;;;10.36;65.56
7824;BME280;3957;48.61947800;9.05303100;2023-03-23T01:03:38;95492.09;;;10.42;65.96
7824;BME280;3957;48.61947800;9.05303100;2023-03-23T01:04:39;95488.59;;;10.41;65.06
7824;BME280;3957;48.61947800;9.05303100;2023-03-23T01:05:39;95481.84;;;10.38;65.88
7824;BME280;3957;48.61947800;9.05303100;2023-03-23T01:06:43;95488.59;;;10.41;66.60
7824;BME280;3957;48.61947800;9.05303100;2023-03-23T01:07:45;95485.66;;;10.49;66.33
7824;BME280;3957;48.61947800;9.05303100;2023-03-23T01:08:45;95479.50;;;10.49;66.43
7824;BME280;3957;48.61947800;9.05303100;2023-03-23T01:09:49;95479.31;;;10.44;66.39
7824;BME280;3957;48.61947800;9.05303100;2023-03-23T01:10:50;95482.78;;;10.51;65.67
7824;BME280;3957;48.61947800;9.05303100;2023-03-23T01:11:51;95489.16;;;10.50;66.44
7824;BME280;3957;48.61947800;9.05303100;2023-03-23T01:12:52;95478.91;;;10.47;66.81
7824;BME280;3957;48.61947800;9.05303100;2023-03-23T01:13:53;95474.94;;;10.49;65.91
7824;BME280;3957;48.61947800;9.05303100;2023-03-23T01:14:54;95478.00;;;10.53;65.19
7824;BME280;3957;48.61947800;9.05303100;2023-03-23T01:15:55;95482.56;;;10.52;65.53
7824;BME280;3957;48.61947800;9.05303100;2023-03-23T01:16:55;95474.09;;;10.55;65.18
7824;BME280;3957;48.61947800;9.05303100;2023-03-23T01:17:56;95472.22;;;10.56;65.02
7824;BME280;3957;48.61947800;9.05303100;2023-03-23T01:18:57;95471.41;;;10.55;64.98
7824;BME280;3957;48.61947800;9.05303100;2023-03-23T01:19:57;95477.13;;;10.59;64.75
7824;BME280;3957;48.61947800;9.05303100;2023-03-23T01:21:09;95475.72;;;10.57;65.40
7824;BME280;3957;48.61947800;9.05303100;2023-03-23T01:22:10;95468.34;;;10.52;65.69
7824;BME280;3957;48.61947800;9.05303100;2023-03-23T01:23:11;95469.88;;;10.41;66.21
7824;BME280;3957;48.61947800;9.05303100;2023-03-23T01:24:11;95470.22;;;10.51;64.86
7824;BME280;3957;48.61947800;9.05303100;2023-03-23T01:25:12;95471.25;;;10.50;64.99
7824;BME280;3957;48.61947800;9.05303100;2023-03-23T01:26:18;95468.13;;;10.53;64.77
7824;BME280;3957;48.61947800;9.05303100;2023-03-23T01:27:19;95464.59;;;10.60;64.28
7824;BME280;3957;48.61947800;9.05303100;2023-03-23T01:28:20;95462.06;;;10.65;63.93
7824;BME280;3957;48.61947800;9.05303100;2023-03-23T01:29:20;95461.41;;;10.69;63.96
7824;BME280;3957;48.61947800;9.05303100;2023-03-23T01:30:21;95459.81;;;10.62;64.83
7824;BME280;3957;48.61947800;9.05303100;2023-03-23T01:31:24;95455.94;;;10.58;65.24
7824;BME280;3957;48.61947800;9.05303100;2023-03-23T01:32:25;95455.94;;;10.58;64.67
7824;BME280;3957;48.61947800;9.05303100;2023-03-23T01:33:25;95457.16;;;10.62;64.62
7824;BME280;3957;48.61947800;9.05303100;2023-03-23T01:34:26;95454.75;;;10.53;65.20
7824;BME280;3957;48.61947800;9.05303100;2023-03-23T01:35:27;95459.72;;;10.50;66.08
7824;BME280;3957;48.61947800;9.05303100;2023-03-23T01:36:29;95451.72;;;10.50;66.00
7824;BME280;3957;48.61947800;9.05303100;2023-03-23T01:37:33;95450.81;;;10.56;65.02
7824;BME280;3957;48.61947800;9.05303100;2023-03-23T01:38:36;95450.00;;;10.55;65.74
7824;BME280;3957;48.61947800;9.05303100;2023-03-23T01:39:37;95456.63;;;10.53;66.67
7824;BME280;3957;48.61947800;9.05303100;2023-03-23T01:40:37;95440.16;;;10.49;66.16
7824;BME280;3957;48.61947800;9.05303100;2023-03-23T01:41:38;95445.69;;;10.54;66.30
7824;BME280;3957;48.61947800;9.05303100;2023-03-23T01:42:43;95439.03;;;10.64;65.17
7824;BME280;3957;48.61947800;9.05303100;2023-03-23T01:44:58;95444.38;;;10.64;66.30
7824;BME280;3957;48.61947800;9.05303100;2023-03-23T01:45:35;95438.69;;;10.79;65.04
7824;BME280;3957;48.61947800;9.05303100;2023-03-23T01:46:36;95430.44;;;10.80;64.98
7824;BME280;3957;48.61947800;9.05303100;2023-03-23T01:47:36;95427.91;;;10.85;65.15
7824;BME280;3957;48.61947800;9.05303100;2023-03-23T01:48:38;95425.81;;;10.87;65.21
7824;BME280;3957;48.61947800;9.05303100;2023-03-23T01:49:42;95427.47;;;10.88;65.74
7824;BME280;3957;48.61947800;9.05303100;2023-03-23T01:51:04;95423.94;;;10.88;64.89
7824;BME280;3957;48.61947800;9.05303100;2023-03-23T01:52:13;95431.56;;;10.91;64.74
7824;BME280;3957;48.61947800;9.05303100;2023-03-23T01:53:18;95434.59;;;10.95;65.17
7824;BME280;3957;48.61947800;9.05303100;2023-03-23T01:54:20;95423.72;;;10.89;64.86
7824;BME280;3957;48.61947800;9.05303100;2023-03-23T01:55:24;95430.28;;;10.94;65.56
7824;BME280;3957;48.61947800;9.05303100;2023-03-23T01:56:32;95429.84;;;10.97;65.17
7824;BME280;3957;48.61947800;9.05303100;2023-03-23T01:57:38;95427.03;;;10.92;65.77
7824;BME280;3957;48.61947800;9.05303100;2023-03-23T01:58:40;95429.25;;;10.76;66.64
7824;BME280;3957;48.61947800;9.05303100;2023-03-23T01:59:45;95425.94;;;10.74;66.34
7824;BME280;3957;48.61947800;9.05303100;2023-03-23T02:00:55;95430.22;;;10.82;66.12
7824;BME280;3957;48.61947800;9.05303100;2023-03-23T02:01:59;95420.63;;;10.93;65.56
7824;BME280;3957;48.61947800;9.05303100;2023-03-23T02:03:01;95425.88;;;10.81;66.32
7824;BME280;3957;48.61947800;9.05303100;2023-03-23T02:04:05;95430.28;;;10.75;66.48
7824;BME280;3957;48.61947800;9.05303100;2023-03-23T02:05:11;95419.78;;;10.74;66.93
7824;BME280;3957;48.61947800;9.05303100;2023-03-23T02:06:14;95421.00;;;10.78;66.33
7824;BME280;3957;48.61947800;9.05303100;2023-03-23T02:07:34;95421.84;;;10.71;67.24
7824;BME280;3957;48.61947800;9.05303100;2023-03-23T02:08:36;95422.25;;;10.75;66.38
7824;BME280;3957;48.61947800;9.05303100;2023-03-23T02:09:37;95422.25;;;10.75;67.03
7824;BME280;3957;48.61947800;9.05303100;2023-03-23T02:10:38;95418.09;;;10.79;66.43
7824;BME280;3957;48.61947800;9.05303100;2023-03-23T02:11:38;95420.75;;;10.79;66.46
7824;BME280;3957;48.61947800;9.05303100;2023-03-23T02:12:39;95417.06;;;10.80;66.13
7824;BME280;3957;48.61947800;9.05303100;2023-03-23T02:13:40;95417.34;;;10.91;65.71
7824;BME280;3957;48.61947800;9.05303100;2023-03-23T02:14:40;95421.50;;;10.86;66.18
7824;BME280;3957;48.61947800;9.05303100;2023-03-23T02:16:52;95411.41;;;10.88;66.14
7824;BME280;3957;48.61947800;9.05303100;2023-03-23T02:18:07;95416.16;;;10.86;66.52
7824;BME280;3957;48.61947800;9.05303100;2023-03-23T02:21:07;95424.84;;;10.82;67.13
7824;BME280;3957;48.61947800;9.05303100;2023-03-23T02:23:29;95418.03;;;10.86;66.35
7824;BME280;3957;48.61947800;9.05303100;2023-03-23T02:26:57;95421.00;;;10.96;65.99
7824;BME280;3957;48.61947800;9.05303100;2023-03-23T02:28:19;95426.72;;;11.00;64.79
7824;BME280;3957;48.61947800;9.05303100;2023-03-23T02:29:47;95422.63;;;10.97;65.09
7824;BME280;3957;48.61947800;9.05303100;2023-03-23T02:31:17;95416.53;;;11.09;64.21
7824;BME280;3957;48.61947800;9.05303100;2023-03-23T02:33:28;95418.31;;;10.96;64.85
7824;BME280;3957;48.61947800;9.05303100;2023-03-23T02:34:32;95414.69;;;11.09;64.12
7824;BME280;3957;48.61947800;9.05303100;2023-03-23T02:35:39;95412.25;;;11.08;64.09
7824;BME280;3957;48.61947800;9.05303100;2023-03-23T02:36:48;95408.44;;;10.97;65.23
7824;BME280;3957;48.61947800;9.05303100;2023-03-23T02:37:57;95407.91;;;10.88;66.08
7824;BME280;3957;48.61947800;9.05303100;2023-03-23T02:39:12;95403.16;;;10.90;65.25
7824;BME280;3957;48.61947800;9.05303100;2023-03-23T02:40:21;95405.16;;;10.95;65.14
7824;BME280;3957;48.61947800;9.05303100;2023-03-23T02:41:29;95399.16;;;10.99;64.59
7824;BME280;3957;48.61947800;9.05303100;2023-03-23T02:42:33;95401.88;;;11.11;63.56
7824;BME280;3957;48.61947800;9.05303100;2023-03-23T02:43:40;95392.81;;;11.12;64.35
7824;BME280;3957;48.61947800;9.05303100;2023-03-23T02:44:45;95392.31;;;11.03;65.45
7824;BME280;3957;48.61947800;9.05303100;2023-03-23T02:45:46;95389.47;;;10.98;65.26
7824;BME280;3957;48.61947800;9.05303100;2023-03-23T02:46:48;95379.28;;;11.07;64.49
7824;BME280;3957;48.61947800;9.05303100;2023-03-23T02:47:52;95375.41;;;11.03;65.83
7824;BME280;3957;48.61947800;9.05303100;2023-03-23T02:48:54;95377.88;;;10.86;65.67
7824;BME280;3957;48.61947800;9.05303100;2023-03-23T02:49:57;95377.72;;;10.81;65.13
7824;BME280;3957;48.61947800;9.05303100;2023-03-23T02:51:00;95378.69;;;10.86;65.92
7824;BME280;3957;48.61947800;9.05303100;2023-03-23T02:52:10;95384.41;;;10.90;64.72
7824;BME280;3957;48.61947800;9.05303100;2023-03-23T02:53:16;95389.25;;;11.00;64.69
7824;BME280;3957;48.61947800;9.05303100;2023-03-23T02:54:19;95385.97;;;10.98;64.53
7824;BME280;3957;48.61947800;9.05303100;2023-03-23T02:55:22;95377.13;;;10.97;64.54
7824;BME280;3957;48.61947800;9.05303100;2023-03-23T02:56:25;95378.69;;;11.05;64.02
7824;BME280;3957;48.61947800;9.05303100;2023-03-23T02:57:28;95371.94;;;11.02;64.38
7824;BME280;3957;48.61947800;9.05303100;2023-03-23T02:58:32;95381.66;;;10.97;65.01
7824;BME280;3957;48.61947800;9.05303100;2023-03-23T02:59:33;95378.16;;;10.96;65.18
7824;BME280;3957;48.61947800;9.05303100;2023-03-23T03:00:33;95372.97;;;10.83;65.31
7824;BME280;3957;48.61947800;9.05303100;2023-03-23T03:02:39;95373.31;;;10.86;65.77
7824;BME280;3957;48.61947800;9.05303100;2023-03-23T03:03:43;95383.81;;;10.69;66.46
7824;BME280;3957;48.61947800;9.05303100;2023-03-23T03:04:53;95376.06;;;10.61;66.95
7824;BME280;3957;48.61947800;9.05303100;2023-03-23T03:08:09;95372.19;;;10.76;66.07
7824;BME280;3957;48.61947800;9.05303100;2023-03-23T03:09:40;95377.13;;;10.79;66.12
7824;BME280;3957;48.61947800;9.05303100;2023-03-23T03:11:03;95371.41;;;10.75;67.03
7824;BME280;3957;48.61947800;9.05303100;2023-03-23T03:12:13;95363.00;;;10.71;67.28
7824;BME280;3957;48.61947800;9.05303100;2023-03-23T03:15:09;95369.09;;;10.79;66.74
7824;BME280;3957;48.61947800;9.05303100;2023-03-23T03:16:20;95361.00;;;10.85;67.39
7824;BME280;3957;48.61947800;9.05303100;2023-03-23T03:17:25;95358.47;;;10.91;66.51
7824;BME280;3957;48.61947800;9.05303100;2023-03-23T03:18:30;95362.09;;;10.96;66.44
7824;BME280;3957;48.61947800;9.05303100;2023-03-23T03:19:38;95360.59;;;11.00;66.38
7824;BME280;3957;48.61947800;9.05303100;2023-03-23T03:20:50;95357.13;;;11.00;66.04
7824;BME280;3957;48.61947800;9.05303100;2023-03-23T03:21:53;95363.34;;;10.94;66.53
7824;BME280;3957;48.61947800;9.05303100;2023-03-23T03:23:00;95361.78;;;11.04;65.67
7824;BME280;3957;48.61947800;9.05303100;2023-03-23T03:24:05;95363.44;;;11.05;66.00
7824;BME280;3957;48.61947800;9.05303100;2023-03-23T03:25:12;95366.50;;;11.09;65.79
7824;BME280;3957;48.61947800;9.05303100;2023-03-23T03:26:14;95371.63;;;11.11;65.95
7824;BME280;3957;48.61947800;9.05303100;2023-03-23T03:27:25;95365.88;;;11.07;65.97
7824;BME280;3957;48.61947800;9.05303100;2023-03-23T03:28:40;95373.69;;;11.09;66.38
7824;BME280;3957;48.61947800;9.05303100;2023-03-23T03:29:45;95370.66;;;11.05;66.57
7824;BME280;3957;48.61947800;9.05303100;2023-03-23T03:30:56;95363.28;;;11.00;66.98
7824;BME280;3957;48.61947800;9.05303100;2023-03-23T03:32:02;95368.50;;;10.95;67.29
7824;BME280;3957;48.61947800;9.05303100;2023-03-23T03:33:05;95366.66;;;10.96;68.02
7824;BME280;3957;48.61947800;9.05303100;2023-03-23T03:34:06;95362.94;;;10.97;67.57
7824;BME280;3957;48.61947800;9.05303100;2023-03-23T03:35:10;95362.16;;;10.89;68.22
7824;BME280;3957;48.61947800;9.05303100;2023-03-23T03:36:18;95363.34;;;10.94;67.52
7824;BME280;3957;48.61947800;9.05303100;2023-03-23T03:37:21;95355.94;;;10.96;67.09
7824;BME280;3957;48.61947800;9.05303100;2023-03-23T03:38:24;95359.34;;;11.03;67.58
7824;BME280;3957;48.61947800;9.05303100;2023-03-23T03:39:27;95360.25;;;10.97;67.74
7824;BME280;3957;48.61947800;9.05303100;2023-03-23T03:40:27;95355.31;;;11.12;66.29
7824;BME280;3957;48.61947800;9.05303100;2023-03-23T03:41:28;95352.56;;;11.19;66.43
7824;BME280;3957;48.61947800;9.05303100;2023-03-23T03:42:28;95358.81;;;11.13;66.76
7824;BME280;3957;48.61947800;9.05303100;2023-03-23T03:43:29;95359.94;;;11.05;67.33
7824;BME280;3957;48.61947800;9.05303100;2023-03-23T03:44:29;95357.78;;;11.14;66.56
7824;BME280;3957;48.61947800;9.05303100;2023-03-23T03:45:30;95356.88;;;11.20;65.65
7824;BME280;3957;48.61947800;9.05303100;2023-03-23T03:46:31;95356.44;;;11.23;66.36
7824;BME280;3957;48.61947800;9.05303100;2023-03-23T03:47:32;95360.41;;;11.32;65.55
7824;BME280;3957;48.61947800;9.05303100;2023-03-23T03:48:33;95366.69;;;11.26;66.35
7824;BME280;3957;48.61947800;9.05303100;2023-03-23T03:49:33;95356.44;;;11.23;67.13
7824;BME280;3957;48.61947800;9.05303100;2023-03-23T03:50:34;95352.56;;;11.19;67.11
7824;BME280;3957;48.61947800;9.05303100;2023-03-23T03:51:35;95358.38;;;11.16;66.70
7824;BME280;3957;48.61947800;9.05303100;2023-03-23T03:52:38;95357.09;;;11.18;66.83
7824;BME280;3957;48.61947800;9.05303100;2023-03-23T03:53:39;95356.78;;;11.27;66.21
7824;BME280;3957;48.61947800;9.05303100;2023-03-23T03:54:39;95355.59;;;11.22;66.75
7824;BME280;3957;48.61947800;9.05303100;2023-03-23T03:55:42;95355.28;;;11.31;65.67
7824;BME280;3957;48.61947800;9.05303100;2023-03-23T03:56:45;95352.59;;;11.31;66.19
7824;BME280;3957;48.61947800;9.05303100;2023-03-23T03:58:16;95348.19;;;11.36;66.65
7824;BME280;3957;48.61947800;9.05303100;2023-03-23T03:59:25;95352.75;;;11.36;66.34
7824;BME280;3957;48.61947800;9.05303100;2023-03-23T04:00:45;95355.06;;;11.32;65.47
7824;BME280;3957;48.61947800;9.05303100;2023-03-23T04:01:50;95358.59;;;11.45;65.20
7824;BME280;3957;48.61947800;9.05303100;2023-03-23T04:02:54;95351.84;;;11.42;65.52
7824;BME280;3957;48.61947800;9.05303100;2023-03-23T04:04:15;95350.53;;;11.33;65.51
7824;BME280;3957;48.61947800;9.05303100;2023-03-23T04:05:16;95353.56;;;11.36;65.25
7824;BME280;3957;48.61947800;9.05303100;2023-03-23T04:06:19;95349.94;;;11.31;65.73
7824;BME280;3957;48.61947800;9.05303100;2023-03-23T04:07:19;95351.34;;;11.33;65.67
7824;BME280;3957;48.61947800;9.05303100;2023-03-23T04:08:22;95344.41;;;11.44;65.94
7824;BME280;3957;48.61947800;9.05303100;2023-03-23T04:09:23;95348.56;;;11.40;65.80
7824;BME280;3957;48.61947800;9.05303100;2023-03-23T04:10:23;95347.94;;;11.26;66.29
7824;BME280;3957;48.61947800;9.05303100;2023-03-23T04:11:28;95344.00;;;11.29;67.13
7824;BME280;3957;48.61947800;9.05303100;2023-03-23T04:12:39;95345.84;;;11.28;66.59
7824;BME280;3957;48.61947800;9.05303100;2023-03-23T04:13:58;95341.78;;;11.26;66.69
7824;BME280;3957;48.61947800;9.05303100;2023-03-23T04:15:06;95344.25;;;11.09;68.08
7824;BME280;3957;48.61947800;9.05303100;2023-03-23T04:16:09;95348.78;;;11.08;67.66
7824;BME280;3957;48.61947800;9.05303100;2023-03-23T04:17:10;95342.59;;;11.26;67.12
7824;BME280;3957;48.61947800;9.05303100;2023-03-23T04:18:11;95340.31;;;11.42;65.39
7824;BME280;3957;48.61947800;9.05303100;2023-03-23T04:19:12;95345.41;;;11.31;66.41
7824;BME280;3957;48.61947800;9.05303100;2023-03-23T04:20:12;95352.19;;;11.46;65.24
7824;BME280;3957;48.61947800;9.05303100;2023-03-23T04:21:23;95355.66;;;11.65;64.57
7824;BME280;3957;48.61947800;9.05303100;2023-03-23T04:22:27;95351.78;;;11.61;64.73
7824;BME280;3957;48.61947800;9.05303100;2023-03-23T04:23:32;95354.00;;;11.64;64.73
7824;BME280;3957;48.61947800;9.05303100;2023-03-23T04:24:36;95361.41;;;11.80;64.00
7824;BME280;3957;48.61947800;9.05303100;2023-03-23T04:25:40;95350.88;;;11.67;64.41
7824;BME280;3957;48.61947800;9.05303100;2023-03-23T04:26:42;95357.16;;;11.61;64.11
7824;BME280;3957;48.61947800;9.05303100;2023-03-23T04:27:53;95348.06;;;11.62;64.57
7824;BME280;3957;48.61947800;9.05303100;2023-03-23T04:29:01;95354.94;;;11.57;64.96
7824;BME280;3957;48.61947800;9.05303100;2023-03-23T04:30:25;95352.50;;;11.56;64.58
7824;BME280;3957;48.61947800;9.05303100;2023-03-23T04:31:43;95353.88;;;11.58;65.25
7824;BME280;3957;48.61947800;9.05303100;2023-03-23T04:33:05;95354.41;;;11.49;65.72
7824;BME280;3957;48.61947800;9.05303100;2023-03-23T04:34:06;95361.25;;;11.63;65.42
7824;BME280;3957;48.61947800;9.05303100;2023-03-23T04:35:13;95364.25;;;11.67;64.43
7824;BME280;3957;48.61947800;9.05303100;2023-03-23T04:36:23;95365.97;;;11.49;65.42
7824;BME280;3957;48.61947800;9.05303100;2023-03-23T04:37:37;95363.63;;;11.53;65.55
7824;BME280;3957;48.61947800;9.05303100;2023-03-23T04:38:38;95359.78;;;11.49;65.99
7824;BME280;3957;48.61947800;9.05303100;2023-03-23T04:39:47;95354.78;;;11.52;65.06
7824;BME280;3957;48.61947800;9.05303100;2023-03-23T04:40:51;95356.28;;;11.48;65.28
7824;BME280;3957;48.61947800;9.05303100;2023-03-23T04:42:15;95365.19;;;11.61;64.82
7824;BME280;3957;48.61947800;9.05303100;2023-03-23T04:43:43;95355.16;;;11.56;65.63
7824;BME280;3957;48.61947800;9.05303100;2023-03-23T04:44:57;95357.41;;;11.40;65.81
7824;BME280;3957;48.61947800;9.05303100;2023-03-23T04:46:04;95357.94;;;11.49;65.50
7824;BME280;3957;48.61947800;9.05303100;2023-03-23T04:47:08;95362.19;;;11.38;65.96
7824;BME280;3957;48.61947800;9.05303100;2023-03-23T04:48:17;95366.69;;;11.56;65.00
7824;BME280;3957;48.61947800;9.05303100;2023-03-23T04:49:31;95363.31;;;11.61;64.62
7824;BME280;3957;48.61947800;9.05303100;2023-03-23T04:50:44;95361.34;;;11.56;64.93
7824;BME280;3957;48.61947800;9.05303100;2023-03-23T04:51:53;95361.59;;;11.36;66.13
7824;BME280;3957;48.61947800;9.05303100;2023-03-23T04:53:11;95356.63;;;11.40;65.57
7824;BME280;3957;48.61947800;9.05303100;2023-03-23T04:54:13;95356.16;;;11.43;65.72
7824;BME280;3957;48.61947800;9.05303100;2023-03-23T04:55:18;95354.47;;;11.30;66.31
7824;BME280;3957;48.61947800;9.05303100;2023-03-23T04:56:26;95359.09;;;11.23;66.37
7824;BME280;3957;48.61947800;9.05303100;2023-03-23T04:57:27;95357.41;;;11.40;66.23
7824;BME280;3957;48.61947800;9.05303100;2023-03-23T04:58:57;95356.28;;;11.48;65.73
7824;BME280;3957;48.61947800;9.05303100;2023-03-23T05:00:16;95361.09;;;11.58;65.19
7824;BME280;3957;48.61947800;9.05303100;2023-03-23T05:01:22;95355.19;;;11.68;64.38
7824;BME280;3957;48.61947800;9.05303100;2023-03-23T05:02:45;95354.00;;;11.64;64.35
7824;BME280;3957;48.61947800;9.05303100;2023-03-23T05:03:53;95353.78;;;11.65;65.02
7824;BME280;3957;48.61947800;9.05303100;2023-03-23T05:04:53;95357.84;;;11.56;65.33
7824;BME280;3957;48.61947800;9.05303100;2023-03-23T05:06:02;95363.06;;;11.51;65.01
7824;BME280;3957;48.61947800;9.05303100;2023-03-23T05:07:04;95353.25;;;11.45;65.34
7824;BME280;3957;48.61947800;9.05303100;2023-03-23T05:08:07;95358.91;;;11.36;66.51
7824;BME280;3957;48.61947800;9.05303100;2023-03-23T05:09:11;95359.91;;;11.23;67.08
7824;BME280;3957;48.61947800;9.05303100;2023-03-23T05:10:12;95357.25;;;11.23;67.24
7824;BME280;3957;48.61947800;9.05303100;2023-03-23T05:11:13;95355.19;;;11.37;66.52
7824;BME280;3957;48.61947800;9.05303100;2023-03-23T05:12:16;95357.31;;;11.35;66.50
7824;BME280;3957;48.61947800;9.05303100;2023-03-23T05:13:29;95352.53;;;11.37;66.01
7824;BME280;3957;48.61947800;9.05303100;2023-03-23T05:14:32;95359.91;;;11.42;66.03
7824;BME280;3957;48.61947800;9.05303100;2023-03-23T05:15:39;95362.38;;;11.25;67.52
7824;BME280;3957;48.61947800;9.05303100;2023-03-23T05:16:42;95357.06;;;11.37;66.29
7824;BME280;3957;48.61947800;9.05303100;2023-03-23T05:17:43;95354.41;;;11.37;66.57
7824;BME280;3957;48.61947800;9.05303100;2023-03-23T05:18:49;95347.22;;;11.19;66.65
7824;BME280;3957;48.61947800;9.05303100;2023-03-23T05:19:52;95350.84;;;11.25;66.86
7824;BME280;3957;48.61947800;9.05303100;2023-03-23T05:21:08;95345.13;;;11.21;67.29
7824;BME280;3957;48.61947800;9.05303100;2023-03-23T05:22:13;95352.84;;;11.29;67.11
7824;BME280;3957;48.61947800;9.05303100;2023-03-23T05:23:19;95348.47;;;11.16;67.63
7824;BME280;3957;48.61947800;9.05303100;2023-03-23T05:24:33;95347.56;;;11.22;67.30
7824;BME280;3957;48.61947800;9.05303100;2023-03-23T05:25:37;95349.06;;;11.18;68.09